sensor_id;sensor_type;location;lat;lon;timestamp;pressure;altitude;pressure_sealevel;temperature;humidity
22018;BME280;11173;51.050;7.108;2023-07-20T00:09:26;99339.63;;;16.13;62.03
22018;BME280;11173;51.050;7.108;2023-07-20T00:19:27;99340.72;;;16.06;62.49
22018;BME280;11173;51.050;7.108;2023-07-20T00:29:27;99341.81;;;15.99;62.96
22018;BME280;11173;51.050;7.108;2023-07-20T00:39:27;99341.78;;;15.90;63.06
22018;BME280;11173;51.050;7.108;2023-07-20T00:49:28;99337.88;;;15.87;63.49
22018;BME280;11173;51.050;7.108;2023-07-20T00:59:28;99330.84;;;15.92;63.98
22018;BME280;11173;51.050;7.108;2023-07-20T01:09:31;99334.78;;;16.04;64.32
22018;BME280;11173;51.050;7.108;2023-07-20T01:19:33;99340.09;;;16.11;64.03
22018;BME280;11173;51.050;7.108;2023-07-20T01:39:37;99332.91;;;16.10;64.63
22018;BME280;11173;51.050;7.108;2023-07-20T01:49:39;99321.97;;;16.03;64.65
22018;BME280;11173;51.050;7.108;2023-07-20T01:59:39;99327.13;;;16.04;65.12
22018;BME280;11173;51.050;7.108;2023-07-20T02:09:39;99320.44;;;16.20;65.64
22018;BME280;11173;51.050;7.108;2023-07-20T02:19:40;99325.56;;;16.31;65.40
22018;BME280;11173;51.050;7.108;2023-07-20T02:29:40;99326.84;;;16.30;65.89
22018;BME280;11173;51.050;7.108;2023-07-20T02:39:41;99329.81;;;16.26;65.66
22018;BME280;11173;51.050;7.108;2023-07-20T02:49:41;99313.72;;;16.08;65.18
22018;BME280;11173;51.050;7.108;2023-07-20T02:59:41;99325.69;;;15.81;65.83
22018;BME280;11173;51.050;7.108;2023-07-20T03:09:41;99331.72;;;15.70;66.35
22018;BME280;11173;51.050;7.108;2023-07-20T03:19:43;99328.91;;;15.61;66.10
22018;BME280;11173;51.050;7.108;2023-07-20T03:29:44;99326.69;;;15.56;66.76
22018;BME280;11173;51.050;7.108;2023-07-20T03:39:44;99333.56;;;15.64;67.63
22018;BME280;11173;51.050;7.108;2023-07-20T03:49:44;99337.50;;;15.76;67.63
22018;BME280;11173;51.050;7.108;2023-07-20T03:59:45;99351.59;;;15.85;67.02
22018;BME280;11173;51.050;7.108;2023-07-20T04:09:45;99359.41;;;15.90;67.08
22018;BME280;11173;51.050;7.108;2023-07-20T04:19:46;99363.31;;;15.93;66.92
22018;BME280;11173;51.050;7.108;2023-07-20T04:29:46;99363.16;;;15.97;67.33
22018;BME280;11173;51.050;7.108;2023-07-20T04:39:46;99380.34;;;15.99;67.24
22018;BME280;11173;51.050;7.108;2023-07-20T04:49:47;99369.41;;;16.01;67.44
22018;BME280;11173;51.050;7.108;2023-07-20T04:59:47;99369.44;;;16.10;67.09
22018;BME280;11173;51.050;7.108;2023-07-20T05:09:47;99366.34;;;16.17;67.06
22018;BME280;11173;51.050;7.108;2023-07-20T05:19:47;99371.63;;;16.24;66.67
22018;BME280;11173;51.050;7.108;2023-07-20T05:29:48;99374.91;;;16.23;67.51
22018;BME280;11173;51.050;7.108;2023-07-20T05:39:48;99369.63;;;16.34;68.01
22018;BME280;11173;51.050;7.108;2023-07-20T05:49:48;99373.38;;;16.59;67.48
22018;BME280;11173;51.050;7.108;2023-07-20T05:59:48;99379.03;;;16.77;68.08
22018;BME280;11173;51.050;7.108;2023-07-20T06:09:49;99387.72;;;17.07;66.71
22018;BME280;11173;51.050;7.108;2023-07-20T06:19:49;99398.34;;;17.12;66.36
22018;BME280;11173;51.050;7.108;2023-07-20T06:29:50;99395.84;;;17.14;67.59
22018;BME280;11173;51.050;7.108;2023-07-20T06:39:50;99409.13;;;17.75;67.78
22018;BME280;11173;51.050;7.108;2023-07-20T06:49:50;99403.25;;;18.21;66.77
22018;BME280;11173;51.050;7.108;2023-07-20T06:59:50;99414.00;;;18.56;66.64
22018;BME280;11173;51.050;7.108;2023-07-20T07:09:51;99410.78;;;19.02;67.82
22018;BME280;11173;51.050;7.108;2023-07-20T07:19:51;99410.22;;;19.57;66.86
22018;BME280;11173;51.050;7.108;2023-07-20T07:29:53;99420.66;;;20.01;64.10
22018;BME280;11173;51.050;7.108;2023-07-20T07:39:55;99421.56;;;20.28;64.75
22018;BME280;11173;51.050;7.108;2023-07-20T07:49:55;99429.00;;;20.46;61.98
22018;BME280;11173;51.050;7.108;2023-07-20T07:59:55;99433.31;;;20.41;61.57
22018;BME280;11173;51.050;7.108;2023-07-20T08:09:56;99448.66;;;20.35;61.11
22018;BME280;11173;51.050;7.108;2023-07-20T08:19:56;99452.06;;;20.59;60.14
22018;BME280;11173;51.050;7.108;2023-07-20T08:29:56;99444.34;;;20.60;60.69
22018;BME280;11173;51.050;7.108;2023-07-20T08:39:57;99462.38;;;20.62;60.15
22018;BME280;11173;51.050;7.108;2023-07-20T08:49:57;99461.97;;;20.70;59.01
22018;BME280;11173;51.050;7.108;2023-07-20T09:00:00;99451.69;;;20.72;60.15
22018;BME280;11173;51.050;7.108;2023-07-20T09:10:02;99462.16;;;20.66;59.83
22018;BME280;11173;51.050;7.108;2023-07-20T09:20:06;99453.38;;;20.79;61.19
22018;BME280;11173;51.050;7.108;2023-07-20T09:30:10;99459.06;;;21.05;57.78
22018;BME280;11173;51.050;7.108;2023-07-20T09:40:15;99440.78;;;21.06;59.10
22018;BME280;11173;51.050;7.108;2023-07-20T09:50:16;99438.53;;;21.42;59.53
22018;BME280;11173;51.050;7.108;2023-07-20T10:00:16;99440.22;;;21.86;57.67
22018;BME280;11173;51.050;7.108;2023-07-20T10:10:17;99425.41;;;22.02;56.20
22018;BME280;11173;51.050;7.108;2023-07-20T10:20:18;99438.00;;;22.01;55.15
22018;BME280;11173;51.050;7.108;2023-07-20T10:30:19;99440.81;;;22.33;55.74
22018;BME280;11173;51.050;7.108;2023-07-20T10:40:23;99427.88;;;22.27;52.97
22018;BME280;11173;51.050;7.108;2023-07-20T10:50:24;99419.19;;;22.04;52.13
22018;BME280;11173;51.050;7.108;2023-07-20T11:00:24;99413.19;;;21.91;54.39
22018;BME280;11173;51.050;7.108;2023-07-20T11:10:25;99405.69;;;21.88;55.79
22018;BME280;11173;51.050;7.108;2023-07-20T11:20:25;99406.34;;;22.09;56.30
22018;BME280;11173;51.050;7.108;2023-07-20T11:30:25;99405.59;;;22.62;54.90
22018;BME280;11173;51.050;7.108;2023-07-20T11:40:26;99389.72;;;23.05;53.03
22018;BME280;11173;51.050;7.108;2023-07-20T11:50:26;99404.19;;;23.57;50.80
22018;BME280;11173;51.050;7.108;2023-07-20T12:00:26;99397.97;;;23.98;53.76
22018;BME280;11173;51.050;7.108;2023-07-20T12:10:27;99397.41;;;24.28;52.18
22018;BME280;11173;51.050;7.108;2023-07-20T12:20:29;99399.56;;;23.82;49.90
22018;BME280;11173;51.050;7.108;2023-07-20T12:30:30;99392.84;;;23.29;49.85
22018;BME280;11173;51.050;7.108;2023-07-20T12:40:30;99386.63;;;23.53;52.13
22018;BME280;11173;51.050;7.108;2023-07-20T12:50:30;99391.53;;;23.53;51.11
22018;BME280;11173;51.050;7.108;2023-07-20T13:00:30;99375.75;;;23.57;51.40
22018;BME280;11173;51.050;7.108;2023-07-20T13:10:31;99378.13;;;23.65;49.94
22018;BME280;11173;51.050;7.108;2023-07-20T13:20:32;99373.22;;;23.59;51.51
22018;BME280;11173;51.050;7.108;2023-07-20T13:30:32;99364.41;;;23.40;50.51
22018;BME280;11173;51.050;7.108;2023-07-20T13:40:33;99362.34;;;23.30;51.79
22018;BME280;11173;51.050;7.108;2023-07-20T13:50:33;99365.69;;;23.68;51.19
22018;BME280;11173;51.050;7.108;2023-07-20T14:00:34;99354.47;;;24.26;53.52
22018;BME280;11173;51.050;7.108;2023-07-20T14:10:34;99339.28;;;25.01;51.91
22018;BME280;11173;51.050;7.108;2023-07-20T14:20:35;99329.94;;;25.06;50.24
22018;BME280;11173;51.050;7.108;2023-07-20T14:30:35;99314.53;;;24.85;52.61
22018;BME280;11173;51.050;7.108;2023-07-20T14:40:35;99322.38;;;24.73;35.80
22018;BME280;11173;51.050;7.108;2023-07-20T14:50:36;99317.56;;;24.56;49.73
22018;BME280;11173;51.050;7.108;2023-07-20T15:00:36;99318.50;;;24.12;49.83
22018;BME280;11173;51.050;7.108;2023-07-20T15:10:36;99308.00;;;23.90;48.09
22018;BME280;11173;51.050;7.108;2023-07-20T15:20:37;99296.47;;;23.31;48.70
22018;BME280;11173;51.050;7.108;2023-07-20T15:30:37;99298.81;;;23.10;48.21
22018;BME280;11173;51.050;7.108;2023-07-20T15:40:37;99288.22;;;22.94;37.75
22018;BME280;11173;51.050;7.108;2023-07-20T15:50:43;99274.50;;;22.75;47.76
22018;BME280;11173;51.050;7.108;2023-07-20T16:00:45;99269.84;;;22.89;48.52
22018;BME280;11173;51.050;7.108;2023-07-20T16:10:45;99258.47;;;22.61;36.43
22018;BME280;11173;51.050;7.108;2023-07-20T16:20:46;99236.53;;;22.44;40.41
22018;BME280;11173;51.050;7.108;2023-07-20T16:30:46;99245.00;;;22.33;39.40
22018;BME280;11173;51.050;7.108;2023-07-20T16:40:47;99247.63;;;22.42;47.50
22018;BME280;11173;51.050;7.108;2023-07-20T16:50:47;99242.16;;;22.28;35.90
22018;BME280;11173;51.050;7.108;2023-07-20T17:00:47;99229.97;;;22.16;36.45
22018;BME280;11173;51.050;7.108;2023-07-20T17:10:48;99232.34;;;22.23;43.90
22018;BME280;11173;51.050;7.108;2023-07-20T17:20:48;99221.31;;;22.36;48.14
22018;BME280;11173;51.050;7.108;2023-07-20T17:30:56;99220.56;;;23.09;35.94
22018;BME280;11173;51.050;7.108;2023-07-20T17:40:56;99221.81;;;24.06;50.06
22018;BME280;11173;51.050;7.108;2023-07-20T17:50:56;99202.53;;;24.65;50.50
22018;BME280;11173;51.050;7.108;2023-07-20T18:01:00;99204.13;;;25.21;45.76
22018;BME280;11173;51.050;7.108;2023-07-20T18:11:06;99195.53;;;25.02;44.08
22018;BME280;11173;51.050;7.108;2023-07-20T18:21:08;99192.66;;;24.36;46.72
22018;BME280;11173;51.050;7.108;2023-07-20T18:31:08;99192.06;;;23.37;41.10
22018;BME280;11173;51.050;7.108;2023-07-20T18:41:08;99193.94;;;22.39;46.97
22018;BME280;11173;51.050;7.108;2023-07-20T18:51:08;99194.38;;;21.43;44.03
22018;BME280;11173;51.050;7.108;2023-07-20T19:01:09;99185.63;;;20.72;46.19
22018;BME280;11173;51.050;7.108;2023-07-20T19:11:09;99176.72;;;20.21;46.43
22018;BME280;11173;51.050;7.108;2023-07-20T19:21:11;99184.97;;;19.78;48.44
22018;BME280;11173;51.050;7.108;2023-07-20T19:31:11;99189.91;;;19.42;49.88
22018;BME280;11173;51.050;7.108;2023-07-20T19:41:11;99193.13;;;19.15;49.75
22018;BME280;11173;51.050;7.108;2023-07-20T19:51:12;99203.19;;;19.01;51.30
22018;BME280;11173;51.050;7.108;2023-07-20T20:01:12;99201.13;;;18.86;45.98
22018;BME280;11173;51.050;7.108;2023-07-20T20:11:12;99210.13;;;18.70;48.01
22018;BME280;11173;51.050;7.108;2023-07-20T20:21:13;99203.03;;;18.60;49.27
22018;BME280;11173;51.050;7.108;2023-07-20T20:31:14;99184.19;;;18.51;47.93
22018;BME280;11173;51.050;7.108;2023-07-20T20:41:14;99195.34;;;18.45;49.61
22018;BME280;11173;51.050;7.108;2023-07-20T20:51:15;99181.91;;;18.40;48.33
22018;BME280;11173;51.050;7.108;2023-07-20T21:01:15;99181.13;;;18.40;46.92
22018;BME280;11173;51.050;7.108;2023-07-20T21:11:15;99204.09;;;18.47;52.12
22018;BME280;11173;51.050;7.108;2023-07-20T21:21:15;99236.41;;;18.61;54.28
22018;BME280;11173;51.050;7.108;2023-07-20T21:31:16;99271.88;;;18.98;54.84
22018;BME280;11173;51.050;7.108;2023-07-20T21:41:16;99290.09;;;18.97;54.93
22018;BME280;11173;51.050;7.108;2023-07-20T21:51:17;99283.06;;;18.47;54.92
22018;BME280;11173;51.050;7.108;2023-07-20T22:01:18;99277.47;;;17.18;56.46
22018;BME280;11173;51.050;7.108;2023-07-20T22:11:21;99248.41;;;15.67;61.01
22018;BME280;11173;51.050;7.108;2023-07-20T22:21:21;99254.09;;;14.64;67.79
22018;BME280;11173;51.050;7.108;2023-07-20T22:31:22;99236.19;;;14.18;70.52
22018;BME280;11173;51.050;7.108;2023-07-20T22:41:22;99226.41;;;14.00;71.62
22018;BME280;11173;51.050;7.108;2023-07-20T22:51:22;99217.34;;;13.96;71.61
22018;BME280;11173;51.050;7.108;2023-07-20T23:01:23;99208.50;;;13.98;72.65
22018;BME280;11173;51.050;7.108;2023-07-20T23:11:23;99197.22;;;14.10;73.12
22018;BME280;11173;51.050;7.108;2023-07-20T23:21:23;99193.50;;;14.36;72.10
22018;BME280;11173;51.050;7.108;2023-07-20T23:31:24;99182.78;;;14.65;70.75
22018;BME280;11173;51.050;7.108;2023-07-20T23:41:25;99148.78;;;14.85;69.50
22018;BME280;11173;51.050;7.108;2023-07-20T23:51:26;99143.84;;;15.08;68.89
